Time;durP1;ratioP1;P1;durP2;ratioP2;P2;SDS_P1;SDS_P2;PMS_P1;PMS_P2;Temp;Humidity;BMP_temperature;BMP_pressure;BME280_temperature;BME280_humidity;BME280_pressure;Samples;Min_cycle;Max_cycle;Signal;HPM_P1;HPM_P2
2021/07/03 00:00:56;;;;;;;;;13.75;12.25;;;;;23.81;48.07;100987.41;5055505;28;45234;-71
2021/07/03 00:03:21;;;;;;;;;9.75;9.75;;;;;23.78;49.03;100995.66;5055441;28;46236;-71
2021/07/03 00:05:46;;;;;;;;;12.00;11.50;;;;;23.74;48.44;100990.53;5054522;28;45469;-71
2021/07/03 00:08:12;;;;;;;;;15.75;14.00;;;;;23.72;48.65;100994.25;5055453;28;45343;-71
2021/07/03 00:10:37;;;;;;;;;12.00;10.75;;;;;23.70;48.46;100993.50;5055106;28;45589;-71
2021/07/03 00:13:03;;;;;;;;;13.00;13.00;;;;;23.69;48.44;100986.44;5054616;28;47036;-71
2021/07/03 00:15:28;;;;;;;;;9.75;9.75;;;;;23.69;49.10;100986.44;5055418;28;45403;-71
2021/07/03 00:17:56;;;;;;;;;11.75;11.00;;;;;23.68;48.62;100984.72;5054984;28;45405;-71
2021/07/03 00:20:23;;;;;;;;;16.75;15.25;;;;;23.65;48.42;100979.59;5054875;28;45545;-71
2021/07/03 00:22:49;;;;;;;;;13.50;13.50;;;;;23.65;48.60;100983.13;5054663;28;46119;-71
2021/07/03 00:25:14;;;;;;;;;13.00;13.00;;;;;23.62;49.16;100986.03;5054622;28;45418;-71
2021/07/03 00:27:40;;;;;;;;;19.25;13.50;;;;;23.61;49.25;100989.66;5055697;28;45534;-71
2021/07/03 00:30:07;;;;;;;;;14.00;13.50;;;;;23.59;48.63;100994.25;5054828;28;45486;-71
2021/07/03 00:32:32;;;;;;;;;16.25;13.50;;;;;23.57;49.01;100973.94;5054449;28;46921;-71
2021/07/03 00:34:58;;;;;;;;;13.50;12.25;;;;;23.55;48.90;100982.09;5054273;28;45331;-71
2021/07/03 00:37:23;;;;;;;;;16.75;16.00;;;;;23.52;49.50;100966.25;5054697;28;45517;-71
2021/07/03 00:39:49;;;;;;;;;15.25;15.25;;;;;23.49;49.08;100977.16;5055045;28;45368;-71
2021/07/03 00:42:14;;;;;;;;;17.00;15.50;;;;;23.49;49.75;100974.50;5054475;28;46004;-71
2021/07/03 00:44:40;;;;;;;;;14.25;14.00;;;;;23.46;49.34;100978.22;5054884;28;45569;-71
2021/07/03 00:47:06;;;;;;;;;11.75;11.00;;;;;23.44;49.62;100987.31;5053263;28;45521;-72
2021/07/03 00:49:34;;;;;;;;;13.75;12.50;;;;;23.39;49.63;100979.63;5054306;28;45379;-70
2021/07/03 00:52:00;;;;;;;;;12.50;11.00;;;;;23.35;49.32;100980.81;5054631;28;45533;-71
2021/07/03 00:54:28;;;;;;;;;13.00;13.00;;;;;23.34;49.93;100978.25;5054515;28;45285;-71
2021/07/03 00:57:04;;;;;;;;;15.25;15.00;;;;;23.29;50.21;100976.75;5054762;28;45322;-71
2021/07/03 00:59:36;;;;;;;;;15.00;11.50;;;;;23.28;50.08;100972.34;5053648;28;45506;-70
2021/07/03 01:02:03;;;;;;;;;17.50;15.00;;;;;23.26;50.07;100976.09;5054245;28;47519;-71
2021/07/03 01:04:29;;;;;;;;;12.75;11.75;;;;;23.23;50.21;100970.97;5054286;28;46603;-71
2021/07/03 01:06:54;;;;;;;;;12.50;12.50;;;;;23.21;49.93;100971.06;5054919;28;45379;-71
2021/07/03 01:09:20;;;;;;;;;11.75;11.75;;;;;23.20;50.13;100976.53;5055063;28;45396;-71
2021/07/03 01:11:45;;;;;;;;;13.50;12.75;;;;;23.16;50.05;100964.34;5054162;28;45417;-71
2021/07/03 01:14:11;;;;;;;;;14.50;10.25;;;;;23.13;49.97;100965.41;5053807;28;45509;-70
2021/07/03 01:16:36;;;;;;;;;13.25;10.25;;;;;23.08;50.68;100968.41;5054293;28;45287;-71
2021/07/03 01:19:02;;;;;;;;;17.25;13.00;;;;;23.05;50.62;100952.63;5054159;28;45500;-71
2021/07/03 01:21:28;;;;;;;;;14.00;14.00;;;;;23.02;50.78;100951.94;5054730;28;47019;-71
2021/07/03 01:23:54;;;;;;;;;18.00;14.00;;;;;22.97;50.92;100949.56;5054280;28;45360;-71
2021/07/03 01:26:19;;;;;;;;;15.00;14.00;;;;;22.95;50.97;100950.63;5054139;28;45383;-70
2021/07/03 01:28:45;;;;;;;;;10.75;10.75;;;;;22.92;51.56;100949.03;5054494;28;45438;-71
2021/07/03 01:31:10;;;;;;;;;13.00;12.50;;;;;22.90;51.30;100938.44;5053967;28;47001;-72
2021/07/03 01:33:36;;;;;;;;;15.50;13.75;;;;;22.90;51.38;100945.59;5054401;28;45524;-71
2021/07/03 01:36:02;;;;;;;;;12.25;10.50;;;;;22.88;51.70;100943.06;5053824;28;45538;-70
2021/07/03 01:38:27;;;;;;;;;12.00;12.00;;;;;22.86;51.62;100939.63;5053913;28;45562;-71
2021/07/03 01:40:53;;;;;;;;;9.00;8.50;;;;;22.85;51.47;100942.41;5054159;28;45958;-68
2021/07/03 01:43:20;;;;;;;;;12.00;12.00;;;;;22.84;51.77;100943.38;5054041;28;45534;-70
2021/07/03 01:45:46;;;;;;;;;11.25;11.25;;;;;22.83;51.96;100936.31;5054951;28;45653;-70
2021/07/03 01:48:11;;;;;;;;;15.75;15.75;;;;;22.82;51.57;100939.97;5050173;28;45509;-70
2021/07/03 01:50:36;;;;;;;;;18.75;15.25;;;;;22.82;51.92;100939.97;5053078;28;45595;-69
2021/07/03 01:53:02;;;;;;;;;21.25;17.50;;;;;22.81;51.54;100938.22;5052758;28;45368;-70
2021/07/03 01:55:27;;;;;;;;;17.00;15.00;;;;;22.80;52.17;100936.53;5052977;28;45550;-70
2021/07/03 01:57:53;;;;;;;;;12.50;10.00;;;;;22.78;51.88;100946.47;5053599;28;45500;-69
2021/07/03 02:00:19;;;;;;;;;13.75;11.00;;;;;22.76;52.22;100933.19;5053653;28;46062;-69
2021/07/03 02:02:44;;;;;;;;;12.50;10.75;;;;;22.76;51.82;100938.53;5053137;28;45185;-69
2021/07/03 02:05:09;;;;;;;;;13.50;13.00;;;;;22.74;52.13;100934.28;5053441;28;45571;-71
2021/07/03 02:07:35;;;;;;;;;13.25;13.25;;;;;22.73;52.20;100941.44;5053784;28;45422;-70
2021/07/03 02:10:01;;;;;;;;;11.50;11.50;;;;;22.73;52.10;100937.91;5053646;28;46106;-70
2021/07/03 02:12:26;;;;;;;;;11.50;10.25;;;;;22.71;52.28;100929.16;5057277;28;45256;-70
2021/07/03 02:14:52;;;;;;;;;13.25;13.25;;;;;22.68;52.64;100930.22;5057209;28;45422;-70
2021/07/03 02:17:17;;;;;;;;;14.75;14.75;;;;;22.64;52.51;100929.59;5056696;28;45497;-70
2021/07/03 02:19:43;;;;;;;;;15.25;14.00;;;;;22.66;52.33;100932.13;5056983;28;47266;-70
2021/07/03 02:22:08;;;;;;;;;14.50;11.50;;;;;22.64;52.67;100928.69;5055868;28;45459;-70
2021/07/03 02:24:34;;;;;;;;;13.25;12.00;;;;;22.64;52.88;100928.69;5057937;28;45306;-70
2021/07/03 02:27:00;;;;;;;;;12.75;12.75;;;;;22.61;52.21;100937.78;5057045;28;45488;-70
2021/07/03 02:29:25;;;;;;;;;14.75;14.75;;;;;22.59;52.53;100922.84;5056708;28;46056;-70
2021/07/03 02:31:50;;;;;;;;;15.00;14.25;;;;;22.58;52.43;100929.13;5056725;28;45271;-70
2021/07/03 02:34:16;;;;;;;;;11.00;11.00;;;;;22.56;52.63;100933.72;5057225;28;45430;-70
2021/07/03 02:36:41;;;;;;;;;11.75;11.50;;;;;22.53;52.43;100929.44;5057593;28;45557;-70
2021/07/03 02:39:06;;;;;;;;;12.00;10.75;;;;;22.50;53.22;100924.34;5056755;28;46063;-69
2021/07/03 02:41:33;;;;;;;;;15.25;13.00;;;;;22.47;52.68;100922.69;5056102;28;45354;-70
2021/07/03 02:43:59;;;;;;;;;16.25;15.25;;;;;22.47;52.66;100929.84;5056714;28;45506;-70
2021/07/03 02:46:25;;;;;;;;;13.25;11.50;;;;;22.47;53.29;100924.50;5056496;28;45292;-70
2021/07/03 02:48:51;;;;;;;;;16.00;14.00;;;;;22.48;53.00;100927.09;5056762;28;46069;-70
2021/07/03 02:51:16;;;;;;;;;18.50;15.50;;;;;22.47;53.20;100929.84;5056170;28;45346;-70
2021/07/03 02:53:41;;;;;;;;;15.25;11.50;;;;;22.46;53.16;100926.34;5056591;28;45679;-70
2021/07/03 02:56:07;;;;;;;;;12.25;10.50;;;;;22.45;53.04;100924.63;5056513;28;45452;-70
2021/07/03 02:58:32;;;;;;;;;12.75;12.75;;;;;22.46;52.78;100920.16;5056333;28;47073;-70
2021/07/03 03:00:57;;;;;;;;;14.25;11.00;;;;;22.46;53.19;100921.00;5056230;28;45390;-71
2021/07/03 03:03:23;;;;;;;;;15.50;14.25;;;;;22.47;52.85;100916.50;5056978;28;45833;-70
2021/07/03 03:05:48;;;;;;;;;14.50;12.75;;;;;22.47;52.70;100917.34;5056090;28;45588;-70
2021/07/03 03:08:13;;;;;;;;;15.50;11.25;;;;;22.46;53.06;100913.00;5055481;28;46315;-70
2021/07/03 03:10:39;;;;;;;;;14.25;11.00;;;;;22.45;53.00;100927.31;5056157;28;45389;-70
2021/07/03 03:13:04;;;;;;;;;9.50;9.50;;;;;22.44;53.04;100914.06;5055936;28;45315;-70
2021/07/03 03:15:30;;;;;;;;;16.25;15.00;;;;;22.44;53.03;100914.06;5056196;28;45324;-71
2021/07/03 03:17:55;;;;;;;;;13.00;13.00;;;;;22.42;52.77;100916.81;5055779;28;45548;-71
2021/07/03 03:20:20;;;;;;;;;12.50;12.50;;;;;22.41;52.93;100925.78;5055927;28;45393;-70
2021/07/03 03:22:46;;;;;;;;;12.75;11.00;;;;;22.40;53.30;100913.41;5055085;28;45515;-70
2021/07/03 03:25:12;;;;;;;;;12.75;12.50;;;;;22.41;52.97;100911.59;5055466;28;45625;-70
2021/07/03 03:27:38;;;;;;;;;13.00;13.00;;;;;22.40;53.16;100913.41;5056264;28;45368;-70
2021/07/03 03:30:05;;;;;;;;;14.25;14.25;;;;;22.41;53.20;100908.94;5055619;28;45318;-70
2021/07/03 03:32:31;;;;;;;;;16.00;14.00;;;;;22.41;53.01;100911.59;5055909;28;45499;-70
2021/07/03 03:34:56;;;;;;;;;16.00;13.00;;;;;22.41;52.80;100916.94;5055941;28;45526;-70
2021/07/03 03:37:22;;;;;;;;;10.75;10.25;;;;;22.40;52.90;100907.22;5056097;28;45441;-70
2021/07/03 03:39:47;;;;;;;;;12.00;10.50;;;;;22.41;53.05;100914.28;5056151;28;45425;-70
2021/07/03 03:42:12;;;;;;;;;11.25;11.00;;;;;22.43;53.30;100913.22;5056179;28;45285;-70
2021/07/03 03:44:38;;;;;;;;;11.75;11.50;;;;;22.44;53.50;100911.38;5055768;28;45325;-70
2021/07/03 03:47:03;;;;;;;;;11.75;11.75;;;;;22.45;52.80;100913.97;5055827;28;46404;-70
2021/07/03 03:49:29;;;;;;;;;14.50;12.75;;;;;22.44;53.24;100919.38;5055474;28;45418;-70
2021/07/03 03:51:54;;;;;;;;;14.25;14.25;;;;;22.40;53.16;100916.06;5055842;28;45494;-70
2021/07/03 03:54:21;;;;;;;;;11.00;9.50;;;;;22.42;53.31;100919.47;5055748;28;45510;-70
2021/07/03 03:56:47;;;;;;;;;16.00;14.00;;;;;22.44;53.35;100922.06;5055458;28;46979;-70
2021/07/03 03:59:13;;;;;;;;;11.25;11.25;;;;;22.43;53.31;100923.03;5054988;28;45312;-70
2021/07/03 04:01:39;;;;;;;;;12.00;11.00;;;;;22.42;53.08;100924.81;5055535;28;45450;-70
2021/07/03 04:04:05;;;;;;;;;13.00;11.75;;;;;22.41;53.18;100927.59;5055425;28;45506;-70
2021/07/03 04:06:30;;;;;;;;;13.75;12.50;;;;;22.41;53.25;100928.47;5056030;28;46345;-70
2021/07/03 04:08:56;;;;;;;;;13.25;13.25;;;;;22.42;53.40;100924.81;5055058;28;45466;-70
2021/07/03 04:11:22;;;;;;;;;13.50;12.75;;;;;22.42;53.02;100929.31;5054245;28;45331;-70
2021/07/03 04:13:47;;;;;;;;;13.50;10.25;;;;;22.43;53.68;100936.38;5054405;28;45469;-70
2021/07/03 04:16:13;;;;;;;;;12.25;12.25;;;;;22.44;53.56;100936.25;5054862;28;45398;-70
2021/07/03 04:18:38;;;;;;;;;10.25;9.75;;;;;22.42;53.57;100932.81;5055442;28;45406;-70
2021/07/03 04:21:03;;;;;;;;;11.25;11.25;;;;;22.39;53.58;100933.03;5055248;28;45463;-70
2021/07/03 04:23:29;;;;;;;;;9.75;9.75;;;;;22.38;53.62;100938.47;5053791;28;45455;-70
2021/07/03 04:25:55;;;;;;;;;11.25;10.00;;;;;22.37;53.80;100937.59;5054590;28;46537;-70
2021/07/03 04:28:20;;;;;;;;;11.25;11.25;;;;;22.36;53.92;100932.41;5054383;28;45479;-70
2021/07/03 04:30:45;;;;;;;;;12.25;12.25;;;;;22.37;53.68;100934.09;5055484;28;45501;-70
2021/07/03 04:33:11;;;;;;;;;12.75;11.75;;;;;22.41;53.82;100938.28;5052470;28;45382;-71
2021/07/03 04:35:37;;;;;;;;;15.50;13.50;;;;;22.45;53.67;100937.09;5053150;28;46904;-70
2021/07/03 04:38:02;;;;;;;;;12.50;11.75;;;;;22.50;53.90;100934.13;5054670;28;45537;-70
2021/07/03 04:40:28;;;;;;;;;15.75;15.00;;;;;22.53;54.40;100936.59;5054812;28;45782;-70
2021/07/03 04:42:54;;;;;;;;;15.00;13.25;;;;;22.56;54.12;100936.38;5052917;28;45544;-70
2021/07/03 04:45:19;;;;;;;;;16.50;16.50;;;;;22.57;54.29;100936.28;5053338;28;46905;-70
2021/07/03 04:47:45;;;;;;;;;14.00;13.00;;;;;22.62;54.26;100935.97;5054043;28;45415;-70
2021/07/03 04:50:11;;;;;;;;;16.75;14.00;;;;;22.66;54.41;100943.66;5054573;28;45240;-70
2021/07/03 04:52:36;;;;;;;;;16.75;16.50;;;;;22.71;54.47;100948.69;5054447;28;45248;-71
2021/07/03 04:55:04;;;;;;;;;16.75;15.00;;;;;22.72;54.45;100953.06;5053768;28;46110;-70
2021/07/03 04:57:29;;;;;;;;;14.75;13.75;;;;;22.71;54.69;100948.69;5054525;28;45387;-70
2021/07/03 04:59:54;;;;;;;;;14.50;14.00;;;;;22.67;54.66;100952.53;5054181;28;45477;-70
2021/07/03 05:02:20;;;;;;;;;12.50;12.50;;;;;22.65;54.85;100941.97;5054138;28;45461;-70
2021/07/03 05:04:46;;;;;;;;;15.75;13.00;;;;;22.66;54.34;100946.31;5053834;28;47140;-70
2021/07/03 05:07:12;;;;;;;;;19.00;15.75;;;;;22.72;54.89;100949.56;5053857;28;45510;-70
2021/07/03 05:09:37;;;;;;;;;14.00;12.25;;;;;22.76;54.46;100946.53;5054985;28;45365;-70
2021/07/03 05:12:03;;;;;;;;;15.25;13.25;;;;;22.81;54.49;100943.56;5053996;28;45368;-70
2021/07/03 05:14:28;;;;;;;;;16.00;16.00;;;;;22.81;54.22;100938.22;5053656;28;46326;-70
2021/07/03 05:16:54;;;;;;;;;14.75;13.75;;;;;22.81;54.73;100933.78;5053858;28;45378;-70
2021/07/03 05:19:20;;;;;;;;;13.00;12.00;;;;;22.83;54.63;100930.97;5052929;28;45419;-70
2021/07/03 05:21:45;;;;;;;;;15.25;15.25;;;;;22.84;54.88;100935.38;5054581;28;45431;-70
2021/07/03 05:24:11;;;;;;;;;18.25;15.75;;;;;22.88;54.39;100926.16;5052999;28;47332;-70
2021/07/03 05:26:37;;;;;;;;;13.75;10.50;;;;;22.93;54.81;100925.84;5052894;28;45402;-70
2021/07/03 05:29:03;;;;;;;;;15.00;13.75;;;;;22.97;54.16;100924.69;5053398;28;45464;-70
2021/07/03 05:31:29;;;;;;;;;16.50;12.75;;;;;23.02;53.97;100927.94;5053158;28;45397;-70
2021/07/03 05:33:54;;;;;;;;;14.00;13.25;;;;;23.07;53.86;100928.44;5053596;28;45562;-70
2021/07/03 05:36:20;;;;;;;;;24.50;23.50;;;;;23.12;54.49;100931.69;5053321;28;45423;-70
2021/07/03 05:38:47;;;;;;;;;12.25;11.75;;;;;23.15;53.70;100931.47;5053717;28;45539;-70
2021/07/03 05:41:14;;;;;;;;;16.00;14.75;;;;;23.20;53.75;100937.34;5052062;28;45667;-70
2021/07/03 05:43:40;;;;;;;;;17.25;17.00;;;;;23.23;53.55;100934.44;5048588;28;45372;-68
2021/07/03 05:46:06;;;;;;;;;14.75;13.00;;;;;23.27;53.73;100927.06;5056943;28;45416;-71
2021/07/03 05:48:33;;;;;;;;;13.75;13.25;;;;;23.29;54.31;100917.13;5057121;28;45446;-71
2021/07/03 05:50:58;;;;;;;;;11.50;10.75;;;;;23.32;53.77;100924.94;5056938;28;45485;-71
2021/07/03 05:53:23;;;;;;;;;16.25;14.25;;;;;23.36;54.16;100922.88;5056877;28;46427;-71
2021/07/03 05:55:49;;;;;;;;;16.50;14.75;;;;;23.40;53.75;100930.56;5056712;28;45305;-71
2021/07/03 05:58:14;;;;;;;;;11.75;11.75;;;;;23.46;54.03;100926.63;5056156;28;45330;-71
2021/07/03 06:00:40;;;;;;;;;15.50;14.00;;;;;23.56;54.59;100929.50;5057088;28;46756;-71
2021/07/03 06:03:05;;;;;;;;;14.75;13.50;;;;;23.67;54.50;100929.59;5056660;28;46253;-71
2021/07/03 06:05:31;;;;;;;;;21.00;17.00;;;;;23.78;54.42;100921.66;5056335;28;45545;-71
2021/07/03 06:07:56;;;;;;;;;21.25;19.75;;;;;23.89;53.32;100928.91;5056100;28;45396;-70
2021/07/03 06:10:21;;;;;;;;;16.25;15.00;;;;;23.95;53.12;100933.78;5056422;28;45235;-71
2021/07/03 06:12:47;;;;;;;;;19.75;16.50;;;;;23.96;52.63;100930.16;5056976;28;46067;-71
2021/07/03 06:15:12;;;;;;;;;13.75;13.50;;;;;24.08;53.40;100937.28;5056248;28;45519;-71
2021/07/03 06:17:38;;;;;;;;;12.50;11.75;;;;;24.17;52.67;100943.78;5056462;28;45426;-71
2021/07/03 06:20:05;;;;;;;;;13.75;12.75;;;;;24.25;52.61;100940.50;5056309;28;45474;-71
2021/07/03 06:22:31;;;;;;;;;18.00;14.75;;;;;24.32;51.44;100936.41;5055347;27;46895;-71
2021/07/03 06:24:56;;;;;;;;;10.50;10.00;;;;;24.35;50.88;100946.88;5055781;28;45372;-71
2021/07/03 06:27:21;;;;;;;;;13.00;11.75;;;;;24.37;50.85;100953.81;5056291;28;45461;-72
2021/07/03 06:29:47;;;;;;;;;16.50;14.00;;;;;24.38;50.96;100946.63;5055896;28;45508;-71
2021/07/03 06:32:12;;;;;;;;;12.50;12.50;;;;;24.42;50.99;100945.44;5054423;28;47523;-71
2021/07/03 06:34:38;;;;;;;;;13.00;13.00;;;;;24.47;51.13;100945.97;5055972;28;45574;-72
2021/07/03 06:37:03;;;;;;;;;18.50;13.75;;;;;24.56;50.88;100937.25;5055550;28;45423;-71
2021/07/03 06:39:29;;;;;;;;;13.00;11.50;;;;;24.66;50.32;100939.25;5055871;28;45395;-71
2021/07/03 06:41:54;;;;;;;;;19.75;18.75;;;;;24.73;50.20;100949.34;5053919;28;47174;-70
2021/07/03 06:44:20;;;;;;;;;12.00;10.75;;;;;24.76;49.79;100957.16;5055824;28;45486;-71
2021/07/03 06:46:48;;;;;;;;;17.50;14.75;;;;;24.78;50.00;100955.22;5055291;28;45394;-71
2021/07/03 06:49:16;;;;;;;;;13.50;12.00;;;;;24.84;49.74;100947.66;5055875;28;45378;-71
2021/07/03 06:51:42;;;;;;;;;13.25;11.75;;;;;24.86;49.56;100951.09;5056213;28;46058;-71
2021/07/03 06:54:08;;;;;;;;;17.75;15.00;;;;;24.86;49.63;100951.97;5055349;28;45887;-71
2021/07/03 06:56:34;;;;;;;;;11.75;11.75;;;;;24.89;49.40;100965.09;5054492;28;45320;-71
2021/07/03 06:58:59;;;;;;;;;14.00;13.00;;;;;24.95;49.16;100953.06;5054653;28;45431;-71
2021/07/03 07:01:25;;;;;;;;;15.00;14.50;;;;;25.04;49.23;100956.84;5053704;28;48105;-71
2021/07/03 07:03:50;;;;;;;;;13.00;12.00;;;;;25.17;49.21;100960.28;5055657;28;45409;-71
2021/07/03 07:06:15;;;;;;;;;14.75;11.75;;;;;25.34;48.45;100970.56;5055144;28;45386;-72
2021/07/03 07:08:41;;;;;;;;;10.75;10.75;;;;;25.39;48.06;100968.38;5054345;28;45358;-72
2021/07/03 07:11:07;;;;;;;;;11.25;11.25;;;;;25.36;47.59;100965.06;5054519;28;46248;-72
2021/07/03 07:13:32;;;;;;;;;9.50;9.50;;;;;25.29;47.39;100961.16;5054132;28;45479;-73
2021/07/03 07:15:57;;;;;;;;;9.50;9.00;;;;;25.21;47.44;100961.78;5055186;28;45849;-73
2021/07/03 07:18:23;;;;;;;;;11.00;11.00;;;;;25.22;47.30;100974.22;5055309;28;45401;-72
2021/07/03 07:20:48;;;;;;;;;13.00;12.00;;;;;25.18;47.52;100970.06;5053901;28;46101;-72
2021/07/03 07:23:14;;;;;;;;;13.00;11.00;;;;;25.17;47.90;100977.25;5054755;28;45461;-71
2021/07/03 07:25:40;;;;;;;;;12.75;11.75;;;;;25.17;47.74;100976.34;5054779;28;45442;-72
2021/07/03 07:28:05;;;;;;;;;13.25;10.75;;;;;25.16;47.98;100977.31;5054104;28;45327;-72
2021/07/03 07:30:31;;;;;;;;;17.50;16.25;;;;;25.17;48.00;100989.75;5054912;28;47356;-71
2021/07/03 07:32:56;;;;;;;;;11.50;11.50;;;;;25.20;48.33;100998.44;5049570;28;45555;-70
2021/07/03 07:35:21;;;;;;;;;12.25;11.25;;;;;25.26;48.08;100994.41;5053257;28;45386;-70
2021/07/03 07:37:48;;;;;;;;;14.00;11.25;;;;;25.34;48.27;101002.72;5053382;28;45510;-73
2021/07/03 07:40:17;;;;;;;;;11.00;9.00;;;;;25.38;47.46;100996.13;5053224;28;46587;-70
2021/07/03 07:42:46;;;;;;;;;14.75;14.00;;;;;25.38;47.97;100995.28;5056697;28;45412;-70
2021/07/03 07:45:16;;;;;;;;;13.25;12.00;;;;;25.41;46.99;100993.22;5056097;28;45623;-70
2021/07/03 07:47:42;;;;;;;;;10.25;10.25;;;;;25.35;47.13;100999.06;5051219;28;45473;-70
2021/07/03 07:50:08;;;;;;;;;11.50;11.00;;;;;25.37;47.59;100998.94;5053932;28;47061;-70
2021/07/03 07:52:34;;;;;;;;;8.00;8.00;;;;;25.48;47.07;100992.72;5054086;28;45264;-70
2021/07/03 07:55:00;;;;;;;;;11.00;11.00;;;;;25.51;46.42;101001.41;5053003;28;45490;-70
2021/07/03 07:57:26;;;;;;;;;8.75;8.75;;;;;25.51;46.55;101013.97;5054550;28;45540;-70
2021/07/03 07:59:52;;;;;;;;;8.25;7.25;;;;;25.51;46.00;101011.28;5053392;28;46188;-70
2021/07/03 08:02:17;;;;;;;;;12.67;11.67;;;;;25.53;46.47;101012.84;5052306;28;45339;-70
2021/07/03 08:04:42;;;;;;;;;13.75;12.25;;;;;25.58;46.54;100997.25;5052329;28;45368;-71
2021/07/03 08:07:08;;;;;;;;;17.00;12.50;;;;;25.59;46.04;100998.09;5053291;28;45456;-69
2021/07/03 08:09:33;;;;;;;;;11.00;10.00;;;;;25.58;46.08;100991.91;5054615;28;45440;-70
2021/07/03 08:11:59;;;;;;;;;12.00;9.33;;;;;25.55;46.48;100994.81;5053030;28;45866;-70
2021/07/03 08:14:24;;;;;;;;;13.75;12.50;;;;;25.56;46.59;100990.31;5053060;28;45419;-70
2021/07/03 08:16:50;;;;;;;;;9.00;9.00;;;;;25.55;46.31;100994.81;5053520;28;45614;-73
2021/07/03 08:19:16;;;;;;;;;9.25;9.25;;;;;25.46;46.01;100997.34;5053346;28;46261;-72
2021/07/03 08:21:42;;;;;;;;;7.67;6.33;;;;;25.27;46.36;100992.63;5054300;28;45472;-72
2021/07/03 08:24:07;;;;;;;;;11.67;10.33;;;;;25.11;46.94;101000.94;5052772;28;45857;-72
2021/07/03 08:26:33;;;;;;;;;8.00;8.00;;;;;24.97;47.24;101010.03;5053445;28;45481;-72
2021/07/03 08:28:58;;;;;;;;;8.25;8.25;;;;;24.88;47.59;101003.56;5053647;28;46202;-72
2021/07/03 08:31:24;;;;;;;;;10.75;10.75;;;;;24.79;47.81;100996.25;5053334;28;45565;-72
2021/07/03 08:33:49;;;;;;;;;11.25;11.25;;;;;24.68;48.02;101001.56;5052889;28;45311;-72
2021/07/03 08:36:14;;;;;;;;;14.25;13.00;;;;;24.58;48.42;101001.41;5053368;28;45206;-72
2021/07/03 08:38:40;;;;;;;;;14.00;12.25;;;;;24.51;48.35;100997.47;5053113;28;46128;-71
2021/07/03 08:41:06;;;;;;;;;12.00;11.25;;;;;24.40;49.19;101003.56;5053109;28;45329;-71
2021/07/03 08:43:32;;;;;;;;;9.25;9.25;;;;;24.32;49.26;101003.31;5052286;28;45389;-73
2021/07/03 08:46:00;;;;;;;;;9.25;9.25;;;;;24.27;49.23;101003.63;5053086;28;45410;-73
2021/07/03 08:48:26;;;;;;;;;11.00;10.25;;;;;24.27;49.67;101010.81;5053127;28;46443;-73
2021/07/03 08:50:57;;;;;;;;;9.00;9.00;;;;;24.26;49.74;101012.63;5053058;28;45338;-73
2021/07/03 08:53:23;;;;;;;;;13.75;11.50;;;;;24.28;49.14;101007.16;5052770;28;45498;-74
2021/07/03 08:55:49;;;;;;;;;11.25;11.00;;;;;24.34;49.45;101001.38;5052196;28;45553;-73
2021/07/03 08:58:14;;;;;;;;;8.75;8.75;;;;;24.34;50.01;101017.41;5052983;28;47143;-73
2021/07/03 09:00:42;;;;;;;;;10.75;9.50;;;;;24.30;50.24;101023.97;5053564;28;45351;-72
2021/07/03 09:03:13;;;;;;;;;11.25;11.25;;;;;24.28;50.86;101025.88;5052471;28;45288;-73
2021/07/03 09:05:40;;;;;;;;;15.25;13.75;;;;;24.30;50.66;101027.47;5052468;28;45291;-74
2021/07/03 09:08:08;;;;;;;;;11.00;10.00;;;;;24.31;51.09;101015.81;5052468;28;46796;-74
2021/07/03 09:10:35;;;;;;;;;12.75;12.25;;;;;24.38;51.23;101008.19;5052132;28;45544;-72
2021/07/03 09:13:02;;;;;;;;;16.25;16.25;;;;;24.55;52.05;101014.97;5050937;28;45448;-72
2021/07/03 09:15:30;;;;;;;;;12.00;12.00;;;;;24.68;50.86;101017.63;5052789;28;45569;-72
2021/07/03 09:18:05;;;;;;;;;10.50;8.00;;;;;24.74;50.53;101012.66;5051797;28;47529;-72
2021/07/03 09:20:31;;;;;;;;;11.50;10.50;;;;;24.77;50.87;101008.88;5051396;28;45419;-72
2021/07/03 09:23:02;;;;;;;;;14.25;10.50;;;;;24.83;51.07;101010.25;5051931;28;45536;-72
2021/07/03 09:25:28;;;;;;;;;13.75;13.75;;;;;24.88;49.91;101008.06;5052377;28;45331;-72
2021/07/03 09:27:54;;;;;;;;;11.00;10.50;;;;;24.81;50.39;101015.69;5052382;28;46383;-72
2021/07/03 09:30:22;;;;;;;;;16.00;13.75;;;;;24.76;51.13;101018.72;5052020;28;45441;-71
2021/07/03 09:32:52;;;;;;;;;13.25;13.25;;;;;24.71;51.50;101012.88;5051436;28;45193;-72
2021/07/03 09:35:19;;;;;;;;;12.75;11.25;;;;;24.72;51.23;101022.63;5051555;28;45540;-72
2021/07/03 09:37:44;;;;;;;;;15.75;14.50;;;;;24.74;51.26;101035.88;5051325;28;46234;-72
2021/07/03 09:40:11;;;;;;;;;10.75;10.50;;;;;24.72;50.98;101027.97;5052052;28;45355;-72
2021/07/03 09:42:38;;;;;;;;;30.25;26.25;;;;;24.79;51.09;101029.22;5052179;28;45524;-72
2021/07/03 09:45:06;;;;;;;;;11.50;10.50;;;;;24.89;50.99;101034.72;5051796;28;45385;-71
2021/07/03 09:47:33;;;;;;;;;17.00;15.25;;;;;24.86;50.78;101037.66;5050435;28;48837;-72
2021/07/03 09:50:06;;;;;;;;;14.00;12.25;;;;;24.86;51.12;101032.28;5050617;28;45519;-73
2021/07/03 09:52:33;;;;;;;;;10.00;10.00;;;;;25.04;50.77;101032.69;5051733;28;45461;-71
2021/07/03 09:54:59;;;;;;;;;13.50;12.25;;;;;25.10;50.57;101036.72;5051373;28;45383;-70
2021/07/03 09:57:24;;;;;;;;;13.75;12.75;;;;;25.20;50.03;101030.59;5051665;28;46043;-70
2021/07/03 09:59:50;;;;;;;;;13.75;12.00;;;;;25.33;49.63;101030.47;5052041;28;45447;-69
2021/07/03 10:02:16;;;;;;;;;19.00;18.00;;;;;25.48;49.27;101040.97;5051142;28;45319;-72
2021/07/03 10:04:41;;;;;;;;;14.50;13.00;;;;;25.59;48.68;101038.31;5051311;28;45457;-71
2021/07/03 10:07:47;;;;;;;;;11.00;8.00;;;;;25.66;48.01;101041.38;5051104;28;45295;-73
2021/07/03 10:10:17;;;;;;;;;17.75;12.75;;;;;25.74;47.80;101050.53;5050370;28;45428;-73
2021/07/03 10:12:46;;;;;;;;;11.00;10.50;;;;;25.77;46.94;101047.59;5051712;28;45480;-73
2021/07/03 10:15:13;;;;;;;;;12.50;11.00;;;;;25.72;46.45;101043.53;5050900;28;45656;-73
2021/07/03 10:17:39;;;;;;;;;13.50;11.00;;;;;25.65;45.90;101040.53;5051065;28;46102;-74
2021/07/03 10:20:13;;;;;;;;;11.50;10.25;;;;;25.70;46.35;101032.97;5051567;28;45576;-73
2021/07/03 10:22:38;;;;;;;;;11.50;11.50;;;;;25.78;46.40;101029.66;5051883;28;45465;-73
2021/07/03 10:25:09;;;;;;;;;11.75;10.75;;;;;25.91;46.53;101027.75;5051703;28;45284;-74
2021/07/03 10:27:35;;;;;;;;;9.00;9.00;;;;;25.95;45.81;101031.03;5050497;28;45429;-72
2021/07/03 10:30:06;;;;;;;;;9.25;9.25;;;;;25.95;45.59;101021.16;5050520;28;45619;-73
2021/07/03 10:32:34;;;;;;;;;11.75;10.75;;;;;26.13;45.27;101031.38;5053125;28;45562;-73
2021/07/03 10:35:20;;;;;;;;;8.00;7.00;;;;;26.33;44.94;101027.06;5054368;28;45423;-73
2021/07/03 10:37:47;;;;;;;;;15.50;13.00;;;;;26.57;44.40;101019.69;5054598;28;46655;-73
2021/07/03 10:40:23;;;;;;;;;12.67;11.33;;;;;26.80;43.85;101027.66;5054964;28;45302;-75
2021/07/03 10:42:49;;;;;;;;;10.67;10.00;;;;;27.02;42.90;101032.06;5051537;28;45241;-76
2021/07/03 10:45:20;;;;;;;;;10.00;10.00;;;;;27.11;42.43;101033.97;5055151;28;45254;-76
2021/07/03 10:47:45;;;;;;;;;7.33;7.33;;;;;27.21;41.19;101031.38;5054352;28;45377;-76
2021/07/03 10:50:20;;;;;;;;;10.75;9.25;;;;;27.30;42.08;101039.50;5054740;28;46956;-74
2021/07/03 10:52:45;;;;;;;;;9.00;9.00;;;;;27.41;41.72;101027.81;5052149;28;45453;-73
2021/07/03 10:55:12;;;;;;;;;8.00;8.00;;;;;27.42;40.71;101031.38;5053979;28;45354;-72
2021/07/03 10:57:45;;;;;;;;;6.00;4.00;;;;;27.50;40.32;101029.69;5052231;28;46276;-73
2021/07/03 11:00:12;;;;;;;;;10.00;9.33;;;;;27.70;41.05;101030.66;5052947;28;45401;-74
2021/07/03 11:02:38;;;;;;;;;8.00;6.00;;;;;27.97;41.00;101021.16;5054365;28;45538;-76
2021/07/03 11:05:13;;;;;;;;;10.33;10.33;;;;;28.17;39.61;101020.22;5054498;28;45326;-74
2021/07/03 11:07:40;;;;;;;;;9.00;9.00;;;;;28.21;38.99;101019.94;5053489;28;45610;-74